Niceville, FL (32578)

12:36 AM CDT on September 03, 2015 (GMT -0500)
Clara Miles, REALTOR | | Change Station
CLOSE
Current Station
Personal Weather Station
Location: Broker Associate, FL
Elevation: 27 ft
Nearby Weather Stations

Elev 27 ft 30.49 °N, 86.46 °W | Updated 36 seconds ago

Partly Cloudy
Partly Cloudy
81.7 °F
Feels Like 89 °F
N
0.0
Wind Variable Wind from SSW
Gusts 5.0 mph

Today
High -- | Low -- °F
--% Chance of Precip.
Yesterday
High -- | Low -- °F
Precip. -- in
6:22 AM 7:05 PM
Waning Gibbous, 73% visible
Pressure 30.00 in
Visibility 10.0 miles
Clouds Mostly Cloudy 7000 ft
Heat Index 89 °F
Dew Point 77 °F
Humidity 84%
Rainfall 0.00 in
Snow Depth Not available.
UV 0 out of 12
Pollen 8.00 out of 12
Air Quality Not available.
Flu Activity Not available.
METAR KDTS 030453Z AUTO VRB04KT 10SM BKN070 29/24 A3000 RMK AO2 SLP157 T02890239 TSNO
Pressure 30.00 in
Visibility 10.0 miles
Clouds Mostly Cloudy 7000 ft
Heat Index 89 °F
Dew Point 77 °F
Humidity 84%
Rainfall 0.00 in
Snow Depth Not available.
UV 0 out of 12
Pollen 8.00 out of 12
Air Quality Not available.
Flu Activity Not available.
METAR KDTS 030453Z AUTO VRB04KT 10SM BKN070 29/24 A3000 RMK AO2 SLP157 T02890239 TSNO

10-Day Weather Forecast

×

Almanac

Astronomy

Sep. 03, 2015 Rise Set
Actual Time
Civil Twilight
Nautical Twilight
Astronomical Twilight
Moon
Length of Visible Light
Length of Day
Tomorrow will be .
, % of the Moon is Illuminated

Today's Extremes

State Highs State Lows

Community

WunderPhotos

Upload Photos

1,851,914 photos uploaded!

WunderBlogs® & News

Nearby

Air Quality

  Air Quality AQ Index Pollutant
Not available.

Snow Depth

Station Depth Elevation

Earthquake Activity

City Distance Mag. Time & Date
Minimum magnitude displayed is 2.5.

Coastal Water Temperatures

Place Temperature

Stations

Nearby Weather Stations

Station Location Temp. Windchill Dew Point Humidity Wind Precip. Elev Updated Type